Time;durP1;ratioP1;P1;durP2;ratioP2;P2;SDS_P1;SDS_P2;PMS_P1;PMS_P2;Temp;Humidity;BMP_temperature;BMP_pressure;BME280_temperature;BME280_humidity;BME280_pressure;Samples;Min_cycle;Max_cycle;Signal;HPM_P1;HPM_P2
2022/12/07 00:01:25;;;;;;;3.77;1.60;;;;;;;;;;1822635;77;20997;-54
2022/12/07 00:03:52;;;;;;;2.05;1.00;;;;;;;;;;1819550;77;21044;-55
2022/12/07 00:06:18;;;;;;;3.43;1.07;;;;;;;;;;1819807;77;21903;-55
2022/12/07 00:08:45;;;;;;;6.03;1.80;;;;;;;;;;1816074;77;20990;-55
2022/12/07 00:11:14;;;;;;;3.77;0.90;;;;;;;;;;1808388;77;21000;-54
2022/12/07 00:13:40;;;;;;;5.43;1.00;;;;;;;;;;1805868;78;21001;-54
2022/12/07 00:16:09;;;;;;;3.93;1.00;;;;;;;;;;1801609;78;21463;-53
2022/12/07 00:18:36;;;;;;;3.40;0.90;;;;;;;;;;1802130;78;22499;-55
2022/12/07 00:21:07;;;;;;;2.37;1.00;;;;;;;;;;1798270;78;21036;-55
2022/12/07 00:23:33;;;;;;;7.13;1.03;;;;;;;;;;1804150;78;21106;-54
2022/12/07 00:26:10;;;;;;;4.70;1.50;;;;;;;;;;1796480;78;21514;-54
2022/12/07 00:28:36;;;;;;;7.13;1.10;;;;;;;;;;1802670;78;21056;-54
2022/12/07 00:31:05;;;;;;;2.60;1.00;;;;;;;;;;1805008;78;21804;-55
2022/12/07 00:33:32;;;;;;;3.80;0.90;;;;;;;;;;1728991;80;21049;-55
2022/12/07 00:35:59;;;;;;;1.60;1.00;;;;;;;;;;1743456;80;21127;-55
2022/12/07 00:38:27;;;;;;;3.37;0.90;;;;;;;;;;1751435;81;21095;-55
2022/12/07 00:40:58;;;;;;;4.37;1.00;;;;;;;;;;1751376;81;21001;-54
2022/12/07 00:43:24;;;;;;;1.97;0.70;;;;;;;;;;1747372;81;22750;-54
2022/12/07 00:45:50;;;;;;;4.17;0.83;;;;;;;;;;1736635;80;21580;-56
2022/12/07 00:48:17;;;;;;;1.50;0.90;;;;;;;;;;1770426;80;21071;-55
2022/12/07 00:50:43;;;;;;;3.40;1.10;;;;;;;;;;1766334;80;21055;-55
2022/12/07 00:53:09;;;;;;;1.80;0.77;;;;;;;;;;1746579;80;21036;-55
2022/12/07 00:55:35;;;;;;;1.23;0.63;;;;;;;;;;1748713;80;21832;-55
2022/12/07 00:58:02;;;;;;;1.83;0.90;;;;;;;;;;1745192;81;21146;-55
2022/12/07 01:00:28;;;;;;;2.20;0.83;;;;;;;;;;1772368;80;21016;-55
2022/12/07 01:02:54;;;;;;;2.73;0.80;;;;;;;;;;1775790;80;21079;-55
2022/12/07 01:05:20;;;;;;;4.40;0.83;;;;;;;;;;1742757;80;21478;-55
2022/12/07 01:08:33;;;;;;;2.47;0.80;;;;;;;;;;1781894;77;27509;-54
2022/12/07 01:11:01;;;;;;;6.63;1.00;;;;;;;;;;1741206;80;21073;-54
2022/12/07 01:13:28;;;;;;;2.07;0.80;;;;;;;;;;1738030;80;22575;-55
2022/12/07 01:15:56;;;;;;;3.80;0.90;;;;;;;;;;1737937;80;21110;-53
2022/12/07 01:18:22;;;;;;;3.43;1.00;;;;;;;;;;1748159;80;20994;-53
2022/12/07 01:21:07;;;;;;;2.80;0.90;;;;;;;;;;1744083;80;21576;-54
2022/12/07 01:23:34;;;;;;;5.90;1.40;;;;;;;;;;1679326;83;21421;-54
2022/12/07 01:26:01;;;;;;;2.47;1.00;;;;;;;;;;1709416;81;21347;-54
2022/12/07 01:28:27;;;;;;;3.47;1.10;;;;;;;;;;1713997;81;21392;-54
2022/12/07 01:31:01;;;;;;;1.87;0.87;;;;;;;;;;1703848;81;21195;-54
2022/12/07 01:33:28;;;;;;;2.67;0.80;;;;;;;;;;1707220;81;21086;-54
2022/12/07 01:35:56;;;;;;;3.70;0.83;;;;;;;;;;1711684;81;21014;-55
2022/12/07 01:38:23;;;;;;;3.47;1.10;;;;;;;;;;1680565;83;21916;-55
2022/12/07 01:40:55;;;;;;;4.53;1.10;;;;;;;;;;1697358;83;21118;-55
2022/12/07 01:43:21;;;;;;;3.20;0.80;;;;;;;;;;1694900;83;21049;-54
2022/12/07 01:45:47;;;;;;;3.13;1.00;;;;;;;;;;1697243;82;21472;-55
2022/12/07 01:48:15;;;;;;;3.87;0.80;;;;;;;;;;1696286;82;21535;-55
2022/12/07 01:50:42;;;;;;;3.30;0.87;;;;;;;;;;1697150;82;21953;-54
2022/12/07 01:53:09;;;;;;;2.77;1.00;;;;;;;;;;1703378;83;21056;-54
2022/12/07 01:55:35;;;;;;;1.60;1.00;;;;;;;;;;1704782;82;20983;-55
2022/12/07 01:58:01;;;;;;;2.73;1.20;;;;;;;;;;1700034;82;21078;-55
2022/12/07 02:00:28;;;;;;;4.60;1.07;;;;;;;;;;1677922;83;21071;-55
2022/12/07 02:03:03;;;;;;;6.10;1.10;;;;;;;;;;1675518;83;23081;-55
2022/12/07 02:05:29;;;;;;;2.93;1.07;;;;;;;;;;1707622;81;21053;-55
2022/12/07 02:07:56;;;;;;;2.83;1.10;;;;;;;;;;1670478;83;21065;-55
2022/12/07 02:10:25;;;;;;;5.40;1.00;;;;;;;;;;1728981;80;21122;-55
2022/12/07 02:13:00;;;;;;;3.40;1.00;;;;;;;;;;1732534;80;21513;-53
2022/12/07 02:15:33;;;;;;;3.87;1.13;;;;;;;;;;1725789;80;21790;-54
2022/12/07 02:18:09;;;;;;;1.97;0.90;;;;;;;;;;1727070;80;21047;-54
2022/12/07 02:20:45;;;;;;;2.80;1.30;;;;;;;;;;1726013;80;21066;-56
2022/12/07 02:24:17;;;;;;;3.10;0.97;;;;;;;;;;1793214;78;27385;-53
2022/12/07 02:27:01;;;;;;;5.73;1.37;;;;;;;;;;1773807;78;21403;-55
2022/12/07 02:29:30;;;;;;;4.20;1.52;;;;;;;;;;1769104;80;26399;-53
2022/12/07 02:32:00;;;;;;;4.23;1.33;;;;;;;;;;1770387;80;20985;-52
2022/12/07 02:34:41;;;;;;;2.70;1.10;;;;;;;;;;1776851;79;20995;-53
2022/12/07 02:37:11;;;;;;;2.30;0.90;;;;;;;;;;1779396;78;21102;-50
2022/12/07 02:39:43;;;;;;;6.67;1.47;;;;;;;;;;1776529;80;20966;-50
2022/12/07 02:42:15;;;;;;;6.10;1.40;;;;;;;;;;1781057;80;21804;-49
2022/12/07 02:44:41;;;;;;;3.07;1.10;;;;;;;;;;1780778;78;21139;-53
2022/12/07 02:47:09;;;;;;;5.43;1.20;;;;;;;;;;1771893;80;20998;-52
2022/12/07 02:49:36;;;;;;;5.37;1.17;;;;;;;;;;1777170;80;20986;-53
2022/12/07 02:52:02;;;;;;;5.70;1.10;;;;;;;;;;1748966;79;21057;-52
2022/12/07 02:54:28;;;;;;;3.83;1.37;;;;;;;;;;1769404;78;21933;-53
2022/12/07 02:57:04;;;;;;;2.27;1.00;;;;;;;;;;1770310;80;21573;-52
2022/12/07 02:59:40;;;;;;;2.17;1.17;;;;;;;;;;1718948;80;21080;-52
2022/12/07 03:02:27;;;;;;;2.77;1.30;;;;;;;;;;1775929;79;20970;-52
2022/12/07 03:05:28;;;;;;;6.10;1.57;;;;;;;;;;1773890;79;21637;-52
2022/12/07 03:08:13;;;;;;;3.10;1.37;;;;;;;;;;1767084;80;21842;-52
2022/12/07 03:11:00;;;;;;;3.53;1.30;;;;;;;;;;1776344;78;22145;-52
2022/12/07 03:14:03;;;;;;;4.00;1.53;;;;;;;;;;1773103;78;21156;-53
2022/12/07 03:16:33;;;;;;;8.77;1.40;;;;;;;;;;1778445;80;21097;-53
2022/12/07 03:19:08;;;;;;;4.80;1.50;;;;;;;;;;1771631;78;21048;-52
2022/12/07 03:21:36;;;;;;;;;;;;;;;;;;1774374;78;21982;-53
2022/12/07 03:24:04;;;;;;;5.97;2.17;;;;;;;;;;1763350;79;21388;-53
2022/12/07 03:26:33;;;;;;;4.13;1.70;;;;;;;;;;1766688;79;21035;-54
2022/12/07 03:29:01;;;;;;;6.77;1.90;;;;;;;;;;1766446;79;21099;-52
2022/12/07 03:31:31;;;;;;;8.40;1.97;;;;;;;;;;1764844;79;21086;-52
2022/12/07 03:34:10;;;;;;;6.27;1.90;;;;;;;;;;1764941;79;21969;-53
2022/12/07 03:36:40;;;;;;;7.73;2.10;;;;;;;;;;1766769;79;21070;-55
2022/12/07 03:39:33;;;;;;;4.83;1.50;;;;;;;;;;1764286;79;21075;-51
2022/12/07 03:41:59;;;;;;;6.17;2.00;;;;;;;;;;1767932;79;21039;-54
2022/12/07 03:44:25;;;;;;;7.80;1.90;;;;;;;;;;1766451;79;21571;-54
2022/12/07 03:47:07;;;;;;;6.50;1.97;;;;;;;;;;1771545;79;21846;-52
2022/12/07 03:49:40;;;;;;;19.83;4.47;;;;;;;;;;1764198;79;21121;-54
2022/12/07 03:52:16;;;;;;;10.40;3.80;;;;;;;;;;1769750;79;21485;-55
2022/12/07 03:55:04;;;;;;;14.03;4.53;;;;;;;;;;1768023;79;21098;-54
2022/12/07 03:57:30;;;;;;;16.00;5.43;;;;;;;;;;1763523;79;21733;-54
2022/12/07 03:59:56;;;;;;;12.03;3.23;;;;;;;;;;1767692;79;21837;-54
2022/12/07 04:02:23;;;;;;;7.80;3.10;;;;;;;;;;1766034;79;21047;-54
2022/12/07 04:04:50;;;;;;;11.07;2.50;;;;;;;;;;1763390;79;21062;-54
2022/12/07 04:07:17;;;;;;;6.67;2.63;;;;;;;;;;1766223;79;21204;-54
2022/12/07 04:09:43;;;;;;;8.17;2.37;;;;;;;;;;1765465;79;21261;-53
2022/12/07 04:12:10;;;;;;;7.80;2.03;;;;;;;;;;1765357;79;22637;-53
2022/12/07 04:14:36;;;;;;;5.83;2.27;;;;;;;;;;1768192;79;21520;-53
2022/12/07 04:17:02;;;;;;;7.60;1.80;;;;;;;;;;1758234;79;21108;-54
2022/12/07 04:19:30;;;;;;;7.43;2.40;;;;;;;;;;1765671;79;21051;-55
2022/12/07 04:21:57;;;;;;;8.80;1.77;;;;;;;;;;1765439;79;21028;-52
2022/12/07 04:24:23;;;;;;;7.27;1.83;;;;;;;;;;1766613;79;21834;-55
2022/12/07 04:26:49;;;;;;;7.30;1.80;;;;;;;;;;1762303;79;21267;-55
2022/12/07 04:29:16;;;;;;;8.10;1.77;;;;;;;;;;1768083;79;21533;-54
2022/12/07 04:31:42;;;;;;;6.13;1.80;;;;;;;;;;1764225;79;21094;-54
2022/12/07 04:34:09;;;;;;;6.50;1.50;;;;;;;;;;1762491;79;21081;-56
2022/12/07 04:36:35;;;;;;;7.07;1.60;;;;;;;;;;1764327;79;22739;-54
2022/12/07 04:39:01;;;;;;;7.97;2.33;;;;;;;;;;1759512;79;21078;-54
2022/12/07 04:41:28;;;;;;;4.57;1.90;;;;;;;;;;1763797;79;21429;-54
2022/12/07 04:43:56;;;;;;;6.03;2.30;;;;;;;;;;1761240;79;21147;-54
2022/12/07 04:46:23;;;;;;;10.13;1.93;;;;;;;;;;1765886;79;21075;-54
2022/12/07 04:48:49;;;;;;;3.70;1.40;;;;;;;;;;1773260;79;21734;-55
2022/12/07 04:51:18;;;;;;;5.37;1.53;;;;;;;;;;1726265;80;21788;-54
2022/12/07 04:53:44;;;;;;;5.53;1.40;;;;;;;;;;1763888;79;21087;-54
2022/12/07 04:56:11;;;;;;;11.03;1.43;;;;;;;;;;1757479;79;21059;-54
2022/12/07 04:58:37;;;;;;;8.17;1.83;;;;;;;;;;1762977;79;21047;-54
2022/12/07 05:01:04;;;;;;;9.50;2.03;;;;;;;;;;1764499;79;22388;-54
2022/12/07 05:03:30;;;;;;;5.97;1.30;;;;;;;;;;1763625;79;21112;-55
2022/12/07 05:05:56;;;;;;;6.53;1.57;;;;;;;;;;1769102;79;21545;-54
2022/12/07 05:08:22;;;;;;;4.57;1.50;;;;;;;;;;1764946;79;21158;-55
2022/12/07 05:10:49;;;;;;;5.00;1.30;;;;;;;;;;1764655;79;22234;-54
2022/12/07 05:13:15;;;;;;;4.63;1.30;;;;;;;;;;1765481;79;21829;-55
2022/12/07 05:15:44;;;;;;;4.30;1.17;;;;;;;;;;1735528;80;20972;-55
2022/12/07 05:18:12;;;;;;;3.43;1.00;;;;;;;;;;1764429;79;20959;-55
2022/12/07 05:20:39;;;;;;;5.60;0.97;;;;;;;;;;1761262;79;21062;-55
2022/12/07 05:23:06;;;;;;;4.50;1.17;;;;;;;;;;1767060;79;21051;-55
2022/12/07 05:25:32;;;;;;;6.67;1.47;;;;;;;;;;1759258;79;21840;-53
2022/12/07 05:27:58;;;;;;;12.37;2.60;;;;;;;;;;1760946;79;21038;-53
2022/12/07 05:30:24;;;;;;;15.17;2.43;;;;;;;;;;1767700;79;21094;-54
2022/12/07 05:32:51;;;;;;;7.33;1.40;;;;;;;;;;1732851;79;21485;-54
2022/12/07 05:35:17;;;;;;;4.37;1.63;;;;;;;;;;1760340;79;21082;-54
2022/12/07 05:37:44;;;;;;;6.50;1.20;;;;;;;;;;1764248;79;21868;-55
2022/12/07 05:40:11;;;;;;;2.67;1.10;;;;;;;;;;1766493;79;21458;-54
2022/12/07 05:42:37;;;;;;;13.60;3.83;;;;;;;;;;1765324;79;20996;-51
2022/12/07 05:45:04;;;;;;;4.73;1.37;;;;;;;;;;1766151;79;21600;-54
2022/12/07 05:47:31;;;;;;;7.57;1.17;;;;;;;;;;1764141;79;20988;-55
2022/12/07 05:49:57;;;;;;;4.63;1.10;;;;;;;;;;1764976;79;21831;-55
2022/12/07 05:52:24;;;;;;;11.47;3.57;;;;;;;;;;1769511;79;21379;-55
2022/12/07 05:54:50;;;;;;;4.00;1.30;;;;;;;;;;1765219;79;21086;-54
2022/12/07 05:57:18;;;;;;;8.67;4.07;;;;;;;;;;1759473;79;21365;-55
2022/12/07 05:59:44;;;;;;;16.47;6.77;;;;;;;;;;1768192;79;22026;-54
2022/12/07 06:02:12;;;;;;;9.33;3.43;;;;;;;;;;1766991;79;21784;-54
2022/12/07 06:04:41;;;;;;;19.33;6.67;;;;;;;;;;1763810;79;21058;-54
2022/12/07 06:07:07;;;;;;;12.80;5.80;;;;;;;;;;1766229;79;21041;-53
2022/12/07 06:09:34;;;;;;;30.97;9.97;;;;;;;;;;1756612;79;21552;-54
2022/12/07 06:14:46;;;;;;;10.10;2.10;;;;;;;;;;1764273;79;22154;-56
2022/12/07 06:17:12;;;;;;;9.57;2.13;;;;;;;;;;1770305;79;21063;-55
2022/12/07 06:19:39;;;;;;;6.23;1.90;;;;;;;;;;1762825;79;21126;-55
2022/12/07 06:22:05;;;;;;;4.67;1.23;;;;;;;;;;1761891;79;20986;-53
2022/12/07 06:24:32;;;;;;;6.43;1.43;;;;;;;;;;1764734;79;21038;-53
2022/12/07 06:26:58;;;;;;;9.60;1.40;;;;;;;;;;1772225;79;21785;-52
2022/12/07 06:29:25;;;;;;;5.03;1.20;;;;;;;;;;1766940;79;21084;-55
2022/12/07 06:31:51;;;;;;;8.73;1.10;;;;;;;;;;1766507;79;21035;-54
2022/12/07 06:34:19;;;;;;;5.63;1.10;;;;;;;;;;1763606;79;21059;-54
2022/12/07 06:36:50;;;;;;;2.13;0.80;;;;;;;;;;1766311;79;21034;-54
2022/12/07 06:39:14;;;;;;;5.37;0.90;;;;;;;;;;1762466;79;23290;-55
2022/12/07 06:41:40;;;;;;;3.20;0.90;;;;;;;;;;1759622;79;21607;-54
2022/12/07 06:44:07;;;;;;;2.80;0.83;;;;;;;;;;1762663;79;21074;-53
2022/12/07 06:47:23;;;;;;;5.33;0.80;;;;;;;;;;1792253;78;28600;-52
2022/12/07 06:49:50;;;;;;;7.00;1.00;;;;;;;;;;1772509;80;21139;-52
2022/12/07 06:52:16;;;;;;;5.07;0.80;;;;;;;;;;1770483;78;21841;-52
2022/12/07 06:54:42;;;;;;;8.27;0.90;;;;;;;;;;1769074;79;21033;-52
2022/12/07 06:57:08;;;;;;;3.13;0.90;;;;;;;;;;1775125;79;21081;-53
2022/12/07 06:59:34;;;;;;;3.07;0.80;;;;;;;;;;1769358;79;21538;-53
2022/12/07 07:02:01;;;;;;;3.50;1.10;;;;;;;;;;1773560;79;21002;-51
2022/12/07 07:04:27;;;;;;;5.60;2.03;;;;;;;;;;1767305;79;21799;-52
2022/12/07 07:06:53;;;;;;;18.53;7.77;;;;;;;;;;1772655;80;21076;-53
2022/12/07 07:09:19;;;;;;;24.93;9.70;;;;;;;;;;1756116;79;21120;-52
2022/12/07 07:11:45;;;;;;;11.50;4.00;;;;;;;;;;1744388;79;21123;-52
2022/12/07 07:14:11;;;;;;;12.33;3.07;;;;;;;;;;1744499;79;21082;-53
2022/12/07 07:16:38;;;;;;;9.77;2.87;;;;;;;;;;1737993;79;21825;-52
2022/12/07 07:19:04;;;;;;;7.57;3.77;;;;;;;;;;1742217;79;21699;-52
2022/12/07 07:21:30;;;;;;;6.00;1.33;;;;;;;;;;1745605;79;21037;-52
2022/12/07 07:23:56;;;;;;;5.40;1.60;;;;;;;;;;1744042;79;21899;-53
2022/12/07 07:26:24;;;;;;;9.33;3.83;;;;;;;;;;1743861;79;21088;-52
2022/12/07 07:28:50;;;;;;;4.13;1.57;;;;;;;;;;1739902;79;21822;-53
2022/12/07 07:31:16;;;;;;;11.10;2.27;;;;;;;;;;1739903;79;21062;-52
2022/12/07 07:33:42;;;;;;;6.90;1.10;;;;;;;;;;1742138;79;21273;-52
2022/12/07 07:36:09;;;;;;;2.03;0.83;;;;;;;;;;1738545;79;21570;-52
2022/12/07 07:38:35;;;;;;;5.10;1.53;;;;;;;;;;1743679;79;21025;-53
2022/12/07 07:41:01;;;;;;;3.00;1.03;;;;;;;;;;1744416;79;21813;-52
2022/12/07 07:43:28;;;;;;;5.37;2.10;;;;;;;;;;1741976;79;21064;-52
2022/12/07 07:45:54;;;;;;;4.87;2.17;;;;;;;;;;1734841;79;21049;-52
2022/12/07 07:48:22;;;;;;;3.27;1.93;;;;;;;;;;1730333;80;21051;-52
2022/12/07 07:50:48;;;;;;;3.33;1.10;;;;;;;;;;1724804;80;21053;-51
2022/12/07 07:53:14;;;;;;;4.63;1.10;;;;;;;;;;1727240;80;23198;-53
2022/12/07 07:55:41;;;;;;;2.63;1.00;;;;;;;;;;1725741;80;21184;-52
2022/12/07 07:58:07;;;;;;;2.97;1.57;;;;;;;;;;1726365;80;21108;-53
2022/12/07 08:00:33;;;;;;;6.67;1.30;;;;;;;;;;1731495;80;21096;-51
2022/12/07 08:02:59;;;;;;;5.37;1.10;;;;;;;;;;1723246;80;21684;-51
2022/12/07 08:05:25;;;;;;;8.07;1.47;;;;;;;;;;1725540;80;21839;-52
2022/12/07 08:07:51;;;;;;;3.20;0.87;;;;;;;;;;1692817;82;21073;-51
2022/12/07 08:10:18;;;;;;;3.87;1.00;;;;;;;;;;1728036;80;21119;-55
2022/12/07 08:15:29;;;;;;;;;;;;;;;;;;1672389;84;21354;-52
2022/12/07 08:17:56;;;;;;;7.87;2.63;;;;;;;;;;1682429;84;21832;-52
2022/12/07 08:20:22;;;;;;;5.47;1.03;;;;;;;;;;1719600;82;21111;-52
2022/12/07 08:22:48;;;;;;;2.47;1.17;;;;;;;;;;1729975;80;21042;-53
2022/12/07 08:25:16;;;;;;;2.23;1.40;;;;;;;;;;1727005;80;21495;-51
2022/12/07 08:27:42;;;;;;;4.33;1.83;;;;;;;;;;1728445;80;21041;-53
2022/12/07 08:30:09;;;;;;;4.77;2.20;;;;;;;;;;1733397;80;21951;-52
2022/12/07 08:32:35;;;;;;;3.73;1.37;;;;;;;;;;1682314;84;21391;-53
2022/12/07 08:35:01;;;;;;;5.63;1.63;;;;;;;;;;1731100;80;20974;-52
2022/12/07 08:37:27;;;;;;;6.70;1.67;;;;;;;;;;1734466;80;20965;-53
2022/12/07 08:39:54;;;;;;;2.33;1.27;;;;;;;;;;1732923;80;21400;-52
2022/12/07 08:42:23;;;;;;;4.10;1.20;;;;;;;;;;1735755;80;20966;-52
2022/12/07 08:44:49;;;;;;;3.63;1.27;;;;;;;;;;1729139;80;21002;-53
2022/12/07 08:47:15;;;;;;;6.83;1.20;;;;;;;;;;1732554;80;20947;-53
2022/12/07 08:49:42;;;;;;;2.73;1.20;;;;;;;;;;1732126;82;21512;-52
2022/12/07 08:52:09;;;;;;;9.43;3.13;;;;;;;;;;1733818;80;21440;-54
2022/12/07 08:54:36;;;;;;;4.87;1.63;;;;;;;;;;1738643;82;21787;-52
2022/12/07 08:57:02;;;;;;;5.53;2.80;;;;;;;;;;1726528;82;20986;-54
2022/12/07 08:59:28;;;;;;;8.53;1.97;;;;;;;;;;1731302;82;21029;-52
2022/12/07 09:01:55;;;;;;;3.90;1.97;;;;;;;;;;1729487;82;20978;-52
2022/12/07 09:04:21;;;;;;;8.97;3.40;;;;;;;;;;1735315;80;20992;-52
2022/12/07 09:06:47;;;;;;;14.03;5.43;;;;;;;;;;1733271;82;21732;-53
2022/12/07 09:09:14;;;;;;;15.07;6.33;;;;;;;;;;1728602;82;21056;-52
2022/12/07 09:11:40;;;;;;;8.17;3.13;;;;;;;;;;1727742;82;21065;-52
2022/12/07 09:14:06;;;;;;;8.77;3.83;;;;;;;;;;1729384;82;21077;-52
2022/12/07 09:16:33;;;;;;;11.97;4.30;;;;;;;;;;1731402;82;21138;-52
2022/12/07 09:18:59;;;;;;;10.00;2.23;;;;;;;;;;1731439;82;21913;-52
2022/12/07 09:21:25;;;;;;;4.37;2.07;;;;;;;;;;1729867;82;21042;-52
2022/12/07 09:23:51;;;;;;;6.53;2.53;;;;;;;;;;1735163;82;21037;-52
2022/12/07 09:26:17;;;;;;;4.57;1.63;;;;;;;;;;1727779;82;21067;-51
2022/12/07 09:28:44;;;;;;;6.43;2.03;;;;;;;;;;1727070;82;21139;-54
2022/12/07 09:31:10;;;;;;;6.57;2.37;;;;;;;;;;1732589;82;21937;-52
2022/12/07 09:33:36;;;;;;;8.30;2.37;;;;;;;;;;1727660;80;21102;-52
2022/12/07 09:36:03;;;;;;;12.70;4.07;;;;;;;;;;1730984;82;21397;-53
2022/12/07 09:38:30;;;;;;;8.67;2.47;;;;;;;;;;1723271;82;21077;-52
2022/12/07 09:40:56;;;;;;;7.17;2.27;;;;;;;;;;1731762;82;20979;-52
2022/12/07 09:43:25;;;;;;;6.90;1.83;;;;;;;;;;1728273;82;21030;-52
2022/12/07 09:45:53;;;;;;;11.50;3.67;;;;;;;;;;1727702;80;21026;-52
2022/12/07 09:48:36;;;;;;;7.80;3.27;;;;;;;;;;1719897;82;21062;-52
2022/12/07 09:51:03;;;;;;;9.70;3.50;;;;;;;;;;1717414;82;21077;-53
2022/12/07 09:53:33;;;;;;;8.73;2.67;;;;;;;;;;1713810;81;21091;-54
2022/12/07 09:55:59;;;;;;;7.97;2.70;;;;;;;;;;1715620;81;21726;-52
2022/12/07 09:58:27;;;;;;;8.23;2.13;;;;;;;;;;1715339;81;21093;-54
2022/12/07 10:00:58;;;;;;;4.30;2.67;;;;;;;;;;1720642;81;21069;-52
2022/12/07 10:03:27;;;;;;;8.90;2.67;;;;;;;;;;1714180;81;21069;-54
2022/12/07 10:05:53;;;;;;;6.40;2.00;;;;;;;;;;1717588;81;21132;-53
2022/12/07 10:08:19;;;;;;;7.03;2.13;;;;;;;;;;1721594;81;21824;-53
2022/12/07 10:10:49;;;;;;;6.27;2.37;;;;;;;;;;1716457;81;21077;-53
2022/12/07 10:13:19;;;;;;;7.00;2.47;;;;;;;;;;1712341;81;21070;-52
2022/12/07 10:15:52;;;;;;;7.47;3.00;;;;;;;;;;1717353;81;21151;-52
2022/12/07 10:18:36;;;;;;;6.50;3.10;;;;;;;;;;1715653;81;22137;-52
2022/12/07 10:21:17;;;;;;;11.20;2.90;;;;;;;;;;1723062;81;22880;-53
2022/12/07 10:24:07;;;;;;;9.47;3.27;;;;;;;;;;1716381;81;21383;-54
2022/12/07 10:26:40;;;;;;;11.67;4.17;;;;;;;;;;1714331;81;21038;-54
2022/12/07 10:29:29;;;;;;;11.13;3.70;;;;;;;;;;1716799;81;21282;-51
2022/12/07 10:31:59;;;;;;;7.60;2.97;;;;;;;;;;1720580;81;21069;-53
2022/12/07 10:34:32;;;;;;;5.97;2.53;;;;;;;;;;1719312;81;21933;-52
2022/12/07 10:37:11;;;;;;;4.87;2.20;;;;;;;;;;1714555;81;21058;-52
2022/12/07 10:42:23;;;;;;;5.90;2.77;;;;;;;;;;1788513;77;27483;-52
2022/12/07 10:44:52;;;;;;;5.03;2.63;;;;;;;;;;1775665;78;20994;-50
2022/12/07 10:47:34;;;;;;;4.60;2.40;;;;;;;;;;1773889;78;21917;-51
2022/12/07 10:50:16;;;;;;;8.17;2.90;;;;;;;;;;1777429;78;20946;-51
2022/12/07 10:52:54;;;;;;;5.03;2.50;;;;;;;;;;1782812;79;21016;-53
2022/12/07 10:55:33;;;;;;;6.27;3.53;;;;;;;;;;1778624;79;21519;-52
2022/12/07 10:58:14;;;;;;;6.20;2.90;;;;;;;;;;1781223;78;21020;-52
2022/12/07 11:00:48;;;;;;;7.50;2.60;;;;;;;;;;1781365;78;21865;-53
2022/12/07 11:03:18;;;;;;;5.75;3.00;;;;;;;;;;1778725;79;20965;-51
2022/12/07 11:05:51;;;;;;;6.27;3.77;;;;;;;;;;1779469;78;21428;-53
2022/12/07 11:08:32;;;;;;;9.50;2.77;;;;;;;;;;1772079;78;21179;-54
2022/12/07 11:11:22;;;;;;;6.80;2.53;;;;;;;;;;1748020;79;21056;-53
2022/12/07 11:14:10;;;;;;;12.50;2.90;;;;;;;;;;1750261;79;21835;-52
2022/12/07 11:16:40;;;;;;;5.27;2.00;;;;;;;;;;1747529;79;21506;-51
2022/12/07 11:19:41;;;;;;;5.63;2.40;;;;;;;;;;1746555;79;21533;-51
2022/12/07 11:22:16;;;;;;;5.73;2.90;;;;;;;;;;1746106;79;22821;-54
2022/12/07 11:24:49;;;;;;;6.60;2.83;;;;;;;;;;1750877;79;21108;-52
2022/12/07 11:27:22;;;;;;;6.70;2.63;;;;;;;;;;1747311;79;21938;-54
2022/12/07 11:30:04;;;;;;;17.13;4.63;;;;;;;;;;1744881;79;21109;-53
2022/12/07 11:32:45;;;;;;;4.97;2.17;;;;;;;;;;1748050;79;21045;-53
2022/12/07 11:35:22;;;;;;;7.67;2.43;;;;;;;;;;1743185;79;21795;-53
2022/12/07 11:37:49;;;;;;;4.90;2.83;;;;;;;;;;1743825;79;21112;-51
2022/12/07 11:40:39;;;;;;;4.47;2.50;;;;;;;;;;1748131;79;21780;-52
2022/12/07 11:43:09;;;;;;;4.10;2.47;;;;;;;;;;1735186;80;21034;-52
2022/12/07 11:45:36;;;;;;;3.23;1.97;;;;;;;;;;1702796;80;22497;-51
2022/12/07 11:48:05;;;;;;;8.43;2.83;;;;;;;;;;1707342;80;22514;-52
2022/12/07 11:50:36;;;;;;;4.53;2.63;;;;;;;;;;1732872;80;21041;-54
2022/12/07 11:53:11;;;;;;;5.50;2.53;;;;;;;;;;1732094;80;21790;-53
2022/12/07 11:55:55;;;;;;;6.03;2.98;;;;;;;;;;1708258;80;21113;-53
2022/12/07 11:58:49;;;;;;;4.90;2.73;;;;;;;;;;1732376;80;21100;-53
2022/12/07 12:01:28;;;;;;;5.10;2.53;;;;;;;;;;1731602;80;21143;-53
2022/12/07 12:04:14;;;;;;;5.20;2.53;;;;;;;;;;1698663;82;21806;-52
2022/12/07 12:06:41;;;;;;;4.80;2.40;;;;;;;;;;1734676;80;21834;-53
2022/12/07 12:09:15;;;;;;;8.27;3.03;;;;;;;;;;1730663;80;21058;-52
2022/12/07 12:11:51;;;;;;;3.43;2.40;;;;;;;;;;1737106;80;21049;-53
2022/12/07 12:14:21;;;;;;;5.03;1.97;;;;;;;;;;1734526;80;21806;-52
2022/12/07 12:17:03;;;;;;;6.43;2.27;;;;;;;;;;1731354;80;21097;-52
2022/12/07 12:19:38;;;;;;;4.17;1.63;;;;;;;;;;1732488;80;21837;-50
2022/12/07 12:22:18;;;;;;;4.43;1.80;;;;;;;;;;1738234;80;21112;-51
2022/12/07 12:24:47;;;;;;;4.23;1.90;;;;;;;;;;1734380;80;21128;-51
2022/12/07 12:27:29;;;;;;;4.83;2.43;;;;;;;;;;1734227;80;21523;-52
2022/12/07 12:29:58;;;;;;;5.17;2.47;;;;;;;;;;1733158;80;21282;-53
2022/12/07 12:32:39;;;;;;;6.37;3.53;;;;;;;;;;1730502;80;21775;-51
2022/12/07 12:35:32;;;;;;;12.77;4.07;;;;;;;;;;1734213;80;21038;-54
2022/12/07 12:38:30;;;;;;;10.37;2.67;;;;;;;;;;1729456;80;21037;-51
2022/12/07 12:40:56;;;;;;;7.87;2.10;;;;;;;;;;1734835;80;22488;-52
2022/12/07 12:43:43;;;;;;;6.17;2.13;;;;;;;;;;1734382;80;22183;-53
2022/12/07 12:46:33;;;;;;;5.40;3.23;;;;;;;;;;1734097;80;21839;-53
2022/12/07 12:49:21;;;;;;;7.53;2.40;;;;;;;;;;1668678;83;21092;-52
2022/12/07 12:51:52;;;;;;;6.23;2.33;;;;;;;;;;1699641;82;21092;-53
2022/12/07 12:54:21;;;;;;;5.77;1.90;;;;;;;;;;1698008;82;21113;-52
2022/12/07 12:56:53;;;;;;;8.00;2.03;;;;;;;;;;1663447;84;21084;-53
2022/12/07 12:59:28;;;;;;;7.47;1.90;;;;;;;;;;1680309;83;22215;-53
2022/12/07 13:01:56;;;;;;;8.40;2.70;;;;;;;;;;1681029;83;21125;-52
2022/12/07 13:04:40;;;;;;;7.60;3.53;;;;;;;;;;1679880;83;21057;-52
2022/12/07 13:07:11;;;;;;;2.00;1.53;;;;;;;;;;1677930;83;21108;-52
2022/12/07 13:09:37;;;;;;;4.27;2.03;;;;;;;;;;1691751;83;21105;-51
2022/12/07 13:12:05;;;;;;;5.23;2.60;;;;;;;;;;1631019;83;21868;-53
2022/12/07 13:14:43;;;;;;;5.10;2.13;;;;;;;;;;1669190;83;21038;-51
2022/12/07 13:17:34;;;;;;;5.77;2.10;;;;;;;;;;1700623;82;21084;-52
2022/12/07 13:20:03;;;;;;;5.47;2.37;;;;;;;;;;1646904;83;21064;-51
2022/12/07 13:22:37;;;;;;;3.73;2.90;;;;;;;;;;1671648;83;22577;-53
2022/12/07 13:27:57;;;;;;;3.93;2.30;;;;;;;;;;1868764;75;27352;-53
2022/12/07 13:30:23;;;;;;;5.50;2.13;;;;;;;;;;1851061;77;21020;-53
2022/12/07 13:32:55;;;;;;;3.40;2.03;;;;;;;;;;1846629;76;21796;-53
2022/12/07 13:35:33;;;;;;;3.10;1.80;;;;;;;;;;1852695;76;20957;-53
2022/12/07 13:38:01;;;;;;;11.30;4.37;;;;;;;;;;1849247;77;20985;-52
2022/12/07 13:40:28;;;;;;;6.93;2.17;;;;;;;;;;1854301;76;20996;-53
2022/12/07 13:42:58;;;;;;;5.50;2.20;;;;;;;;;;1850168;76;21020;-52
2022/12/07 13:45:50;;;;;;;5.07;2.23;;;;;;;;;;1848896;75;21887;-52
2022/12/07 13:48:26;;;;;;;4.23;2.53;;;;;;;;;;1852437;76;21742;-52
2022/12/07 13:50:53;;;;;;;2.23;1.50;;;;;;;;;;1849174;77;20946;-53
2022/12/07 13:53:20;;;;;;;2.83;2.37;;;;;;;;;;1849068;75;21460;-52
2022/12/07 13:55:46;;;;;;;4.23;1.70;;;;;;;;;;1856420;76;21080;-52
2022/12/07 13:58:12;;;;;;;2.87;1.50;;;;;;;;;;1850866;75;21363;-53
2022/12/07 14:00:39;;;;;;;2.80;1.90;;;;;;;;;;1850369;75;21326;-52
2022/12/07 14:03:15;;;;;;;3.00;1.83;;;;;;;;;;1854983;76;20966;-53
2022/12/07 14:05:42;;;;;;;4.30;2.37;;;;;;;;;;1854447;76;21087;-52
2022/12/07 14:08:15;;;;;;;4.23;2.40;;;;;;;;;;1847896;76;21495;-53
2022/12/07 14:10:51;;;;;;;3.80;2.17;;;;;;;;;;1832502;76;22563;-51
2022/12/07 14:13:40;;;;;;;4.27;2.07;;;;;;;;;;1830347;76;21051;-52
2022/12/07 14:16:29;;;;;;;3.83;1.63;;;;;;;;;;1828867;76;21512;-51
2022/12/07 14:20:29;;;;;;;2.50;1.80;;;;;;;;;;1753437;77;73544;-77
2022/12/07 14:22:57;;;;;;;4.08;2.35;;;;;;;;;;1669330;83;21375;-79
2022/12/07 14:25:25;;;;;;;2.90;2.23;;;;;;;;;;1666911;83;21892;-78
2022/12/07 14:27:59;;;;;;;3.47;2.00;;;;;;;;;;1664395;83;21564;-80
2022/12/07 14:30:32;;;;;;;1.87;1.32;;;;;;;;;;1665696;84;21064;-80
2022/12/07 14:33:00;;;;;;;6.85;4.58;;;;;;;;;;1675755;84;21060;-80
2022/12/07 14:35:26;;;;;;;8.17;4.00;;;;;;;;;;1671527;84;21025;-79
2022/12/07 14:37:53;;;;;;;8.93;4.73;;;;;;;;;;1672321;84;21797;-79
2022/12/07 14:40:21;;;;;;;7.67;4.70;;;;;;;;;;1668423;83;21720;-79
2022/12/07 14:42:48;;;;;;;9.27;4.87;;;;;;;;;;1675977;83;21089;-79
2022/12/07 14:45:17;;;;;;;10.47;6.03;;;;;;;;;;1671651;84;21030;-78
2022/12/07 14:47:44;;;;;;;13.40;7.77;;;;;;;;;;1668783;83;21103;-78
2022/12/07 14:50:12;;;;;;;12.07;6.17;;;;;;;;;;1671201;85;21863;-77
2022/12/07 14:52:38;;;;;;;8.23;4.03;;;;;;;;;;1667781;83;21115;-78
2022/12/07 14:55:07;;;;;;;6.47;2.40;;;;;;;;;;1668985;84;21984;-78
2022/12/07 14:57:34;;;;;;;5.53;2.60;;;;;;;;;;1673070;84;21052;-78
2022/12/07 15:00:00;;;;;;;7.40;3.47;;;;;;;;;;1668680;83;21885;-78
2022/12/07 15:02:27;;;;;;;4.53;2.13;;;;;;;;;;1667390;84;21875;-79
2022/12/07 15:04:53;;;;;;;4.23;2.33;;;;;;;;;;1670574;83;21041;-79
2022/12/07 15:07:19;;;;;;;3.20;1.90;;;;;;;;;;1664889;83;21069;-78
2022/12/07 15:09:47;;;;;;;3.83;1.83;;;;;;;;;;1674338;83;21024;-78
2022/12/07 15:12:13;;;;;;;4.03;2.30;;;;;;;;;;1671276;83;21081;-80
2022/12/07 15:14:39;;;;;;;3.43;1.97;;;;;;;;;;1668526;84;21220;-78
2022/12/07 15:17:05;;;;;;;6.07;1.97;;;;;;;;;;1669523;83;21040;-77